createdAt,value
2022-12-24T00:01:33.628Z,6.20
2022-12-24T00:04:00.298Z,5.30
2022-12-24T00:06:26.826Z,6.20
2022-12-24T00:08:53.455Z,6.60
2022-12-24T00:11:20.115Z,8.70
2022-12-24T00:13:47.181Z,7.10
2022-12-24T00:16:13.757Z,6.13
2022-12-24T00:18:45.796Z,6.33
2022-12-24T00:21:13.881Z,4.90
2022-12-24T00:23:40.606Z,6.80
2022-12-24T00:26:07.252Z,7.27
2022-12-24T00:28:33.848Z,5.00
2022-12-24T00:31:00.518Z,6.03
2022-12-24T00:33:27.144Z,6.60
2022-12-24T00:35:53.790Z,8.57
2022-12-24T00:38:20.533Z,4.87
2022-12-24T00:40:47.204Z,6.60
2022-12-24T00:43:13.775Z,6.97
2022-12-24T00:45:40.325Z,6.43
2022-12-24T00:48:06.943Z,7.70
2022-12-24T00:50:33.561Z,6.90
2022-12-24T00:53:00.176Z,6.73
2022-12-24T00:55:26.760Z,5.60
2022-12-24T00:57:53.485Z,7.80
2022-12-24T01:00:20.155Z,6.03
2022-12-24T01:02:47.263Z,5.73
2022-12-24T01:05:14.217Z,6.17
2022-12-24T01:07:42.417Z,7.00
2022-12-24T01:10:09.628Z,5.70
2022-12-24T01:12:36.370Z,6.10
2022-12-24T01:15:03.200Z,6.03
2022-12-24T01:17:31.728Z,6.90
2022-12-24T01:19:58.508Z,6.90
2022-12-24T01:22:25.066Z,6.57
2022-12-24T01:24:51.647Z,5.80
2022-12-24T01:27:18.209Z,5.20
2022-12-24T01:29:44.877Z,5.77
2022-12-24T01:32:11.493Z,5.50
2022-12-24T01:34:38.046Z,6.37
2022-12-24T01:37:04.624Z,6.10
2022-12-24T01:39:31.149Z,8.23
2022-12-24T01:42:16.535Z,6.63
2022-12-24T01:44:44.410Z,7.27
2022-12-24T01:47:20.446Z,6.70
2022-12-24T01:49:53.579Z,5.50
2022-12-24T01:52:22.312Z,7.13
2022-12-24T01:55:00.860Z,6.73
2022-12-24T01:57:29.788Z,6.00
2022-12-24T01:59:58.602Z,7.27
2022-12-24T02:02:25.708Z,5.60
2022-12-24T02:05:11.238Z,7.90
2022-12-24T02:07:38.205Z,6.30
2022-12-24T02:10:05.314Z,5.93
2022-12-24T02:12:35.047Z,6.53
2022-12-24T02:15:01.682Z,5.63
2022-12-24T02:17:28.321Z,8.63
2022-12-24T02:19:57.890Z,7.97
2022-12-24T02:22:30.480Z,4.63
2022-12-24T02:24:57.040Z,4.63
2022-12-24T02:27:29.194Z,4.20
2022-12-24T02:30:05.221Z,6.00
2022-12-24T02:32:34.854Z,4.80
2022-12-24T02:35:08.212Z,6.87
2022-12-24T02:37:37.205Z,7.40
2022-12-24T02:40:15.768Z,5.60
2022-12-24T02:42:44.393Z,4.93
2022-12-24T02:45:19.373Z,4.93
2022-12-24T02:47:46.850Z,4.50
2022-12-24T02:50:14.629Z,4.70
2022-12-24T02:52:43.007Z,6.60
2022-12-24T02:55:13.344Z,6.43
2022-12-24T02:57:49.310Z,5.40
2022-12-24T03:00:18.064Z,5.80
2022-12-24T03:02:53.573Z,5.10
2022-12-24T03:05:26.299Z,6.53
2022-12-24T03:08:02.559Z,3.27
2022-12-24T03:10:47.516Z,4.43
2022-12-24T03:13:15.608Z,4.83
2022-12-24T03:15:43.158Z,5.27
2022-12-24T03:18:11.502Z,4.70
2022-12-24T03:20:47.827Z,5.23
2022-12-24T03:23:14.764Z,4.60
2022-12-24T03:25:42.366Z,3.80
2022-12-24T03:28:09.890Z,4.40
2022-12-24T03:30:39.336Z,2.83
2022-12-24T03:33:05.941Z,3.30
2022-12-24T03:35:32.506Z,3.57
2022-12-24T03:37:59.171Z,3.20
2022-12-24T03:40:25.844Z,3.47
2022-12-24T03:42:52.620Z,4.80
2022-12-24T03:45:19.182Z,3.60
2022-12-24T03:47:45.718Z,3.40
2022-12-24T03:50:12.431Z,3.50
2022-12-24T03:52:39.019Z,3.60
2022-12-24T03:55:05.965Z,2.63
2022-12-24T03:57:32.487Z,3.07
2022-12-24T03:59:58.965Z,3.50
2022-12-24T04:02:25.761Z,2.40
2022-12-24T04:04:52.433Z,3.40
2022-12-24T04:07:18.918Z,3.30
2022-12-24T04:09:45.402Z,2.87
2022-12-24T04:12:11.962Z,3.27
2022-12-24T04:14:38.744Z,3.23
2022-12-24T04:17:05.397Z,3.40
2022-12-24T04:19:32.103Z,4.03
2022-12-24T04:21:58.761Z,2.87
2022-12-24T04:24:25.439Z,4.57
2022-12-24T04:26:52.030Z,4.10
2022-12-24T04:29:18.584Z,4.30
2022-12-24T04:31:45.156Z,4.20
2022-12-24T04:34:11.704Z,5.83
2022-12-24T04:36:38.207Z,4.73
2022-12-24T04:39:04.888Z,4.97
2022-12-24T04:41:32.239Z,4.93
2022-12-24T04:43:59.317Z,5.13
2022-12-24T04:46:27.401Z,5.37
2022-12-24T04:48:54.625Z,9.83
2022-12-24T04:51:21.383Z,6.23
2022-12-24T04:53:48.128Z,6.23
2022-12-24T04:56:16.979Z,6.10
2022-12-24T04:58:43.480Z,5.87
2022-12-24T05:01:15.900Z,7.23
2022-12-24T05:03:42.577Z,6.10
2022-12-24T05:06:11.238Z,7.03
2022-12-24T05:08:38.466Z,5.60
2022-12-24T05:11:05.342Z,5.87
2022-12-24T05:13:40.643Z,6.60
2022-12-24T05:16:11.628Z,5.90
2022-12-24T05:18:38.447Z,5.97
2022-12-24T05:21:08.856Z,5.07
2022-12-24T05:23:54.313Z,7.57
2022-12-24T05:26:28.726Z,6.63
2022-12-24T05:28:56.144Z,6.43
2022-12-24T05:31:23.598Z,6.50
2022-12-24T05:33:50.193Z,7.50
2022-12-24T05:36:17.055Z,7.80
2022-12-24T05:38:43.801Z,8.63
2022-12-24T05:41:10.333Z,7.83
2022-12-24T05:43:37.669Z,7.30
2022-12-24T05:46:06.086Z,7.80
2022-12-24T05:48:32.840Z,8.63
2022-12-24T05:50:59.595Z,7.60
2022-12-24T05:53:26.134Z,6.97
2022-12-24T05:55:52.647Z,6.20
2022-12-24T05:58:19.116Z,8.50
2022-12-24T06:00:45.794Z,6.90
2022-12-24T06:03:13.410Z,9.93
2022-12-24T06:05:41.358Z,7.27
2022-12-24T06:08:07.837Z,9.03
2022-12-24T06:10:34.411Z,7.00
2022-12-24T06:13:00.906Z,7.10
2022-12-24T06:15:27.374Z,7.60
2022-12-24T06:17:54.178Z,7.60
2022-12-24T06:20:20.877Z,6.00
2022-12-24T06:22:47.407Z,8.87
2022-12-24T06:25:14.101Z,6.73
2022-12-24T06:27:40.667Z,8.83
2022-12-24T06:30:07.849Z,4.70
2022-12-24T06:32:34.659Z,7.47
2022-12-24T06:35:01.282Z,8.03
2022-12-24T06:37:27.860Z,7.23
2022-12-24T06:39:54.326Z,6.73
2022-12-24T06:42:21.025Z,6.63
2022-12-24T06:44:47.608Z,5.70
2022-12-24T06:47:14.173Z,8.10
2022-12-24T06:49:40.712Z,9.63
2022-12-24T06:52:07.310Z,8.00
2022-12-24T06:54:33.895Z,8.57
2022-12-24T06:57:00.420Z,8.63
2022-12-24T06:59:26.908Z,5.93
2022-12-24T07:01:53.571Z,5.90
2022-12-24T07:04:20.888Z,7.17
2022-12-24T07:06:47.774Z,7.20
2022-12-24T07:09:14.511Z,7.00
2022-12-24T07:11:41.175Z,5.27
2022-12-24T07:14:07.751Z,9.67
2022-12-24T07:16:34.386Z,7.33
2022-12-24T07:19:01.058Z,7.87
2022-12-24T07:21:27.651Z,5.57
2022-12-24T07:23:54.275Z,9.47
2022-12-24T07:26:21.067Z,6.87
2022-12-24T07:28:47.629Z,8.17
2022-12-24T07:31:14.348Z,8.83
2022-12-24T07:33:40.981Z,8.60
2022-12-24T07:36:08.355Z,7.20
2022-12-24T07:38:35.085Z,10.43
2022-12-24T07:41:01.637Z,8.77
2022-12-24T07:43:28.415Z,8.67
2022-12-24T07:45:56.526Z,9.80
2022-12-24T07:48:23.606Z,8.93
2022-12-24T07:50:51.185Z,9.00
2022-12-24T07:53:17.999Z,8.57
2022-12-24T07:55:45.147Z,6.03
2022-12-24T07:58:11.678Z,8.80
2022-12-24T08:00:38.279Z,10.20
2022-12-24T08:03:04.949Z,7.57
2022-12-24T08:05:37.839Z,6.47
2022-12-24T08:08:04.486Z,7.57
2022-12-24T08:10:31.129Z,5.37
2022-12-24T08:13:06.674Z,5.87
2022-12-24T08:15:33.297Z,6.97
2022-12-24T08:17:59.887Z,8.77
2022-12-24T08:20:26.570Z,8.70
2022-12-24T08:22:53.828Z,6.30
2022-12-24T08:25:44.914Z,6.77
2022-12-24T08:28:12.033Z,7.43
2022-12-24T08:30:38.655Z,6.80
2022-12-24T08:33:05.204Z,5.80
2022-12-24T08:35:32.131Z,6.63
2022-12-24T08:37:58.908Z,8.73
2022-12-24T08:40:25.563Z,6.50
2022-12-24T08:42:52.406Z,6.90
2022-12-24T08:45:19.358Z,7.80
2022-12-24T08:47:46.144Z,8.37
2022-12-24T08:50:13.025Z,9.77
2022-12-24T08:52:39.746Z,6.00
2022-12-24T08:55:07.027Z,7.23
2022-12-24T08:57:35.777Z,8.10
2022-12-24T09:00:02.546Z,9.40
2022-12-24T09:02:29.443Z,6.07
2022-12-24T09:04:56.148Z,7.57
2022-12-24T09:07:23.019Z,8.80
2022-12-24T09:09:49.542Z,7.83
2022-12-24T09:12:16.153Z,9.30
2022-12-24T09:14:42.720Z,10.40
2022-12-24T09:17:09.250Z,7.30
2022-12-24T09:19:35.914Z,6.60
2022-12-24T09:22:02.624Z,8.87
2022-12-24T09:24:29.734Z,12.03
2022-12-24T09:26:58.112Z,9.57
2022-12-24T09:29:25.140Z,7.83
2022-12-24T09:31:51.788Z,7.07
2022-12-24T09:34:36.162Z,7.70
2022-12-24T09:37:03.198Z,7.83
2022-12-24T09:39:29.933Z,7.13
2022-12-24T09:42:15.398Z,7.90
2022-12-24T09:44:45.687Z,7.57
2022-12-24T09:47:31.303Z,9.10
2022-12-24T09:49:59.600Z,8.97
2022-12-24T09:52:36.562Z,10.00
2022-12-24T09:55:12.406Z,8.30
2022-12-24T09:57:41.290Z,8.67
2022-12-24T10:00:17.191Z,9.33
2022-12-24T10:02:44.047Z,8.27
2022-12-24T10:05:14.660Z,8.40
2022-12-24T10:07:50.562Z,8.30
2022-12-24T10:10:17.225Z,10.53
2022-12-24T10:12:49.734Z,8.77
2022-12-24T10:15:25.883Z,8.60
2022-12-24T10:17:55.556Z,7.60
2022-12-24T10:20:40.909Z,7.87
2022-12-24T10:23:26.431Z,7.20
2022-12-24T10:26:02.572Z,7.67
2022-12-24T10:28:38.549Z,8.03
2022-12-24T10:31:07.491Z,8.00
2022-12-24T10:33:37.075Z,8.70
2022-12-24T10:36:09.900Z,9.47
2022-12-24T10:38:38.603Z,7.90
2022-12-24T10:41:05.429Z,8.07
2022-12-24T10:43:32.014Z,7.97
2022-12-24T10:46:03.816Z,7.70
2022-12-24T10:48:32.275Z,7.67
2022-12-24T10:51:03.747Z,8.57
2022-12-24T10:53:36.740Z,8.80
2022-12-24T10:56:08.163Z,8.03
2022-12-24T10:58:35.698Z,8.57
2022-12-24T11:01:03.399Z,8.93
2022-12-24T11:03:36.958Z,6.83
2022-12-24T11:06:08.963Z,9.97
2022-12-24T11:08:36.840Z,9.63
2022-12-24T11:11:05.534Z,9.30
2022-12-24T11:13:41.300Z,9.77
2022-12-24T11:16:27.051Z,6.37
2022-12-24T11:18:54.842Z,6.93
2022-12-24T11:21:22.732Z,9.73
2022-12-24T11:23:50.534Z,8.87
2022-12-24T11:26:21.178Z,8.27
2022-12-24T11:29:03.021Z,6.97
2022-12-24T11:31:32.828Z,8.77
2022-12-24T11:33:59.500Z,7.53
2022-12-24T11:36:27.665Z,7.83
2022-12-24T11:39:22.644Z,7.10
2022-12-24T11:41:51.055Z,7.13
2022-12-24T11:44:24.117Z,9.83
2022-12-24T11:46:56.680Z,7.43
2022-12-24T11:49:25.622Z,7.20
2022-12-24T11:52:02.601Z,7.53
2022-12-24T11:54:31.306Z,8.53
2022-12-24T11:56:58.977Z,8.70
2022-12-24T11:59:31.612Z,6.10
2022-12-24T12:02:15.905Z,7.93
2022-12-24T12:04:44.061Z,6.77
2022-12-24T12:07:15.263Z,7.67
2022-12-24T12:09:47.647Z,7.63
2022-12-24T12:12:15.833Z,6.73
2022-12-24T12:14:56.868Z,8.10
2022-12-24T12:17:34.602Z,8.23
2022-12-24T12:20:13.345Z,8.57
2022-12-24T12:22:45.502Z,8.53
2022-12-24T12:25:21.097Z,8.73
2022-12-24T12:27:49.435Z,7.57
2022-12-24T12:30:17.778Z,11.23
2022-12-24T12:32:51.673Z,6.40
2022-12-24T12:35:24.972Z,9.53
2022-12-24T12:37:56.490Z,7.60
2022-12-24T12:40:27.682Z,7.67
2022-12-24T12:43:01.596Z,8.00
2022-12-24T12:45:43.445Z,7.37
2022-12-24T12:48:34.293Z,7.20
2022-12-24T12:51:19.097Z,7.77
2022-12-24T12:53:55.234Z,8.10
2022-12-24T12:56:32.723Z,8.43
2022-12-24T12:59:12.691Z,12.50
2022-12-24T13:01:58.268Z,12.67
2022-12-24T13:04:44.181Z,8.10
2022-12-24T13:07:20.053Z,8.13
2022-12-24T13:09:46.569Z,5.87
2022-12-24T13:12:13.189Z,5.73
2022-12-24T13:14:47.105Z,5.90
2022-12-24T13:17:35.485Z,8.10
2022-12-24T13:20:12.170Z,6.63
2022-12-24T13:22:38.788Z,9.23
2022-12-24T13:25:28.582Z,6.40
2022-12-24T13:27:55.128Z,7.37
2022-12-24T13:30:35.919Z,6.50
2022-12-24T13:33:03.757Z,8.17
2022-12-24T13:35:37.582Z,6.67
2022-12-24T13:38:24.085Z,5.90
2022-12-24T13:40:50.676Z,7.67
2022-12-24T13:43:17.335Z,7.80
2022-12-24T13:45:45.659Z,8.30
2022-12-24T13:48:12.349Z,6.57
2022-12-24T13:50:41.269Z,8.20
2022-12-24T13:53:42.860Z,7.13
2022-12-24T13:56:09.463Z,6.17
2022-12-24T13:58:38.154Z,8.20
2022-12-24T14:01:06.292Z,7.27
2022-12-24T14:03:47.484Z,6.23
2022-12-24T14:06:22.696Z,8.27
2022-12-24T14:08:50.073Z,7.07
2022-12-24T14:11:18.221Z,7.10
2022-12-24T14:13:47.978Z,6.70
2022-12-24T14:16:16.132Z,8.93
2022-12-24T14:18:44.350Z,7.40
2022-12-24T14:21:18.488Z,5.97
2022-12-24T14:23:45.763Z,7.80
2022-12-24T14:26:17.367Z,7.87
2022-12-24T14:28:46.379Z,8.10
2022-12-24T14:31:15.520Z,7.27
2022-12-24T14:33:42.583Z,7.47
2022-12-24T14:36:09.519Z,8.00
2022-12-24T14:38:36.459Z,7.40
2022-12-24T14:41:18.598Z,7.20
2022-12-24T14:43:57.623Z,7.77
2022-12-24T14:46:43.047Z,9.90
2022-12-24T14:49:23.006Z,8.40
2022-12-24T14:51:52.919Z,6.63
2022-12-24T14:54:32.476Z,8.87
2022-12-24T14:57:26.337Z,8.80
2022-12-24T15:00:17.967Z,10.20
2022-12-24T15:02:50.382Z,9.17
2022-12-24T15:05:19.654Z,7.37
2022-12-24T15:07:48.408Z,8.90
2022-12-24T15:10:26.885Z,8.70
2022-12-24T15:12:54.812Z,8.47
2022-12-24T15:15:21.637Z,10.03
2022-12-24T15:17:48.703Z,9.67
2022-12-24T15:20:20.379Z,7.70
2022-12-24T15:22:47.827Z,9.30
2022-12-24T15:25:19.705Z,9.03
2022-12-24T15:27:46.637Z,9.20
2022-12-24T15:30:15.113Z,8.90
2022-12-24T15:32:41.831Z,7.90
2022-12-24T15:35:28.512Z,8.73
2022-12-24T15:37:57.689Z,8.53
2022-12-24T15:40:24.857Z,8.90
2022-12-24T15:42:52.191Z,9.67
2022-12-24T15:45:27.239Z,9.40
2022-12-24T15:48:06.059Z,9.30
2022-12-24T15:50:37.095Z,12.13
2022-12-24T15:53:20.995Z,10.40
2022-12-24T15:56:07.472Z,10.23
2022-12-24T15:58:40.277Z,12.00
2022-12-24T16:01:10.345Z,10.40
2022-12-24T16:03:38.480Z,13.37
2022-12-24T16:06:09.185Z,8.60
2022-12-24T16:08:36.399Z,12.60
2022-12-24T16:11:05.969Z,11.00
2022-12-24T16:13:34.376Z,12.60
2022-12-24T16:16:02.981Z,16.93
2022-12-24T16:18:35.105Z,18.20
2022-12-24T16:21:02.201Z,21.43
2022-12-24T16:23:32.613Z,15.33
2022-12-24T16:25:59.427Z,15.43
2022-12-24T16:28:26.519Z,19.07
2022-12-24T16:30:55.755Z,14.43
2022-12-24T16:33:23.797Z,20.07
2022-12-24T16:35:50.824Z,22.07
2022-12-24T16:38:17.617Z,19.07
2022-12-24T16:40:44.276Z,20.87
2022-12-24T16:43:29.903Z,19.83
2022-12-24T16:46:01.193Z,19.10
2022-12-24T16:48:29.200Z,18.37
2022-12-24T16:50:56.017Z,18.83
2022-12-24T16:53:23.260Z,20.97
2022-12-24T16:55:51.417Z,17.30
2022-12-24T16:58:18.552Z,20.40
2022-12-24T17:00:45.708Z,24.40
2022-12-24T17:03:12.415Z,25.10
2022-12-24T17:05:42.625Z,25.53
2022-12-24T17:08:09.856Z,24.60
2022-12-24T17:10:36.516Z,24.47
2022-12-24T17:13:03.402Z,23.37
2022-12-24T17:15:30.336Z,27.73
2022-12-24T17:17:57.119Z,22.80
2022-12-24T17:20:24.538Z,21.27
2022-12-24T17:22:51.498Z,21.00
2022-12-24T17:25:18.290Z,20.43
2022-12-24T17:27:44.857Z,21.20
2022-12-24T17:30:11.771Z,20.27
2022-12-24T17:32:39.861Z,24.30
2022-12-24T17:35:07.028Z,21.23
2022-12-24T17:37:33.708Z,20.50
2022-12-24T17:40:00.957Z,23.80
2022-12-24T17:42:27.615Z,20.63
2022-12-24T17:44:54.161Z,23.37
2022-12-24T17:47:20.932Z,22.97
2022-12-24T17:49:47.570Z,24.30
2022-12-24T17:52:14.133Z,23.87
2022-12-24T17:54:40.704Z,22.20
2022-12-24T17:57:07.259Z,21.20
2022-12-24T17:59:33.846Z,16.27
2022-12-24T18:02:00.647Z,19.00
2022-12-24T18:04:27.557Z,18.57
2022-12-24T18:07:01.731Z,20.10
2022-12-24T18:09:29.619Z,17.43
2022-12-24T18:11:56.354Z,17.37
2022-12-24T18:14:23.356Z,18.80
2022-12-24T18:16:52.479Z,17.33
2022-12-24T18:19:19.303Z,17.50
2022-12-24T18:21:46.094Z,13.80
2022-12-24T18:24:13.317Z,13.80
2022-12-24T18:26:40.387Z,14.60
2022-12-24T18:29:08.815Z,14.03
2022-12-24T18:31:36.202Z,13.40
2022-12-24T18:34:04.397Z,16.27
2022-12-24T18:36:31.470Z,13.50
2022-12-24T18:38:58.381Z,30.57
2022-12-24T18:41:26.009Z,23.93
2022-12-24T18:43:53.412Z,20.17
2022-12-24T18:46:21.686Z,18.27
2022-12-24T18:48:48.510Z,16.30
2022-12-24T18:51:15.766Z,24.53
2022-12-24T18:53:42.374Z,21.20
2022-12-24T18:56:13.746Z,26.37
2022-12-24T18:58:52.157Z,27.53
2022-12-24T19:01:20.318Z,24.37
2022-12-24T19:03:47.655Z,24.57
2022-12-24T19:06:14.201Z,30.60
2022-12-24T19:08:59.163Z,22.63
2022-12-24T19:11:28.110Z,20.60
2022-12-24T19:13:54.852Z,16.00
2022-12-24T19:16:21.855Z,16.43
2022-12-24T19:18:48.851Z,19.90
2022-12-24T19:21:17.731Z,13.90
2022-12-24T19:23:44.857Z,13.70
2022-12-24T19:26:12.037Z,11.77
2022-12-24T19:28:38.905Z,14.57
2022-12-24T19:31:07.463Z,11.00
2022-12-24T19:33:53.667Z,14.93
2022-12-24T19:36:22.092Z,15.10
2022-12-24T19:38:51.148Z,11.03
2022-12-24T19:41:27.563Z,12.60
2022-12-24T19:43:55.386Z,12.20
2022-12-24T19:46:24.131Z,18.10
2022-12-24T19:48:52.607Z,15.77
2022-12-24T19:51:19.326Z,11.50
2022-12-24T19:53:46.279Z,11.30
2022-12-24T19:56:17.174Z,12.50
2022-12-24T19:58:44.723Z,11.33
2022-12-24T20:01:15.877Z,12.13
2022-12-24T20:03:43.576Z,11.60
2022-12-24T20:06:10.495Z,13.27
2022-12-24T20:08:37.812Z,12.57
2022-12-24T20:11:06.687Z,13.53
2022-12-24T20:13:33.878Z,12.57
2022-12-24T20:16:11.918Z,12.23
2022-12-24T20:18:39.122Z,10.80
2022-12-24T20:21:07.421Z,9.93
2022-12-24T20:23:34.665Z,9.13
2022-12-24T20:26:04.234Z,11.00
2022-12-24T20:28:32.256Z,9.10
2022-12-24T20:30:58.823Z,8.80
2022-12-24T20:33:25.688Z,10.60
2022-12-24T20:35:52.359Z,9.83
2022-12-24T20:38:19.164Z,9.87
2022-12-24T20:40:47.141Z,9.90
2022-12-24T20:43:13.859Z,8.70
2022-12-24T20:45:41.062Z,10.67
2022-12-24T20:48:08.030Z,9.90
2022-12-24T20:50:34.881Z,9.27
2022-12-24T20:53:01.409Z,8.57
2022-12-24T20:55:28.038Z,9.07
2022-12-24T20:57:54.632Z,7.67
2022-12-24T21:00:21.402Z,8.73
2022-12-24T21:02:48.167Z,7.23
2022-12-24T21:05:15.374Z,9.27
2022-12-24T21:07:43.710Z,9.87
2022-12-24T21:10:11.210Z,10.67
2022-12-24T21:12:50.431Z,8.73
2022-12-24T21:15:18.196Z,9.40
2022-12-24T21:17:44.863Z,7.70
2022-12-24T21:20:11.884Z,8.93
2022-12-24T21:22:38.594Z,9.33
2022-12-24T21:25:05.907Z,8.03
2022-12-24T21:27:32.586Z,7.90
2022-12-24T21:29:59.464Z,9.30
2022-12-24T21:32:26.225Z,10.20
2022-12-24T21:34:52.861Z,10.50
2022-12-24T21:37:20.090Z,11.50
2022-12-24T21:39:48.040Z,10.60
2022-12-24T21:42:14.928Z,10.53
2022-12-24T21:44:43.046Z,11.20
2022-12-24T21:47:11.018Z,11.20
2022-12-24T21:49:56.284Z,9.03
2022-12-24T21:52:23.066Z,11.73
2022-12-24T21:54:50.047Z,12.80
2022-12-24T21:57:35.734Z,11.43
2022-12-24T22:00:21.070Z,9.47
2022-12-24T22:02:51.981Z,7.70
2022-12-24T22:05:19.228Z,8.47
2022-12-24T22:08:04.739Z,8.93
2022-12-24T22:10:50.727Z,7.67
2022-12-24T22:13:17.780Z,8.30
2022-12-24T22:15:49.252Z,6.63
2022-12-24T22:18:16.608Z,8.20
2022-12-24T22:20:43.961Z,9.23
2022-12-24T22:23:11.099Z,7.33
2022-12-24T22:25:37.816Z,8.07
2022-12-24T22:28:04.928Z,8.30
2022-12-24T22:30:31.968Z,9.80
2022-12-24T22:32:58.767Z,9.47
2022-12-24T22:35:25.589Z,9.80
2022-12-24T22:37:57.725Z,10.10
2022-12-24T22:40:28.075Z,9.43
2022-12-24T22:42:55.017Z,9.27
2022-12-24T22:45:22.608Z,10.13
2022-12-24T22:47:49.756Z,10.83
2022-12-24T22:50:16.530Z,10.43
2022-12-24T22:52:43.357Z,10.80
2022-12-24T22:55:10.144Z,8.30
2022-12-24T22:57:36.853Z,10.43
2022-12-24T23:00:08.910Z,8.37
2022-12-24T23:02:35.653Z,7.80
2022-12-24T23:05:02.428Z,9.23
2022-12-24T23:07:29.202Z,9.67
2022-12-24T23:09:57.144Z,10.20
2022-12-24T23:12:43.997Z,9.60
2022-12-24T23:15:10.806Z,9.50
2022-12-24T23:17:37.448Z,9.50
2022-12-24T23:20:04.370Z,9.03
2022-12-24T23:22:30.978Z,9.47
2022-12-24T23:24:57.592Z,11.43
2022-12-24T23:27:24.502Z,11.90
2022-12-24T23:29:51.054Z,10.30
2022-12-24T23:32:17.572Z,10.90
2022-12-24T23:34:53.116Z,10.40
2022-12-24T23:37:19.638Z,11.67
2022-12-24T23:39:46.277Z,9.83
2022-12-24T23:42:12.944Z,9.73
2022-12-24T23:44:39.642Z,10.87
2022-12-24T23:47:06.377Z,8.70
2022-12-24T23:49:32.911Z,9.97
2022-12-24T23:51:59.466Z,8.97
2022-12-24T23:54:26.932Z,9.37
2022-12-24T23:56:53.498Z,9.57
2022-12-24T23:59:20.005Z,8.70
